Trelew, Argentina
Current Conditions -  °F | °C
As of 1:00 AM on Monday 24 Nov 2014 (Local Time) from SAVC Reporting Station
Clear Clear  
Wind Chill: 54°   Ceiling: Unl
Heat Index: 54°   Visibility: 6mi
Dew Point: 45°   Wind: 8mph
Humidity: 72%   Direction: 270°W
Pressure: 29.59"   Gusts: NA
Location:  43.25°S, 65.3°W
Report Text: SAVC 240400Z 27007KT CAVOK 12/07 Q1002
Loading
Personal Weather Stations






























Interactive Weather Map New forecast layout! Learn more

10-Day Weather Forecast

Advertisements
Track Severe Weather on mobile